TimeCST,TemperatureF,Dew PointF,Humidity,Sea Level PressureIn,VisibilityMPH,Wind Direction,Wind SpeedMPH,Gust SpeedMPH,PrecipitationIn,Events,Conditions,WindDirDegrees,DateUTC
12:15 AM,36.0,33.4,91,30.11,10.0,Calm,Calm,-,N/A,,Clear,0,2013-02-14 06:15:00
12:35 AM,34.0,32.4,94,30.11,10.0,SE,3.5,-,N/A,,Clear,130,2013-02-14 06:35:00
12:55 AM,33.8,32.5,95,30.10,5.0,Calm,Calm,-,N/A,,Clear,0,2013-02-14 06:55:00
1:15 AM,33.8,32.7,96,30.10,10.0,Calm,Calm,-,N/A,,Clear,0,2013-02-14 07:15:00
1:35 AM,35.1,33.8,95,30.10,10.0,Calm,Calm,-,N/A,,Clear,0,2013-02-14 07:35:00
2:15 AM,34.5,32.0,90,30.10,10.0,Calm,Calm,-,N/A,,Clear,0,2013-02-14 08:15:00
2:35 AM,33.1,31.6,94,30.10,10.0,Calm,Calm,-,N/A,,Clear,0,2013-02-14 08:35:00
2:55 AM,32.7,31.6,96,30.10,10.0,Calm,Calm,-,N/A,,Clear,0,2013-02-14 08:55:00
3:15 AM,32.0,30.7,95,30.10,10.0,Calm,Calm,-,N/A,,Clear,0,2013-02-14 09:15:00
3:35 AM,31.5,30.2,95,30.10,10.0,SE,3.5,-,N/A,,Clear,140,2013-02-14 09:35:00
3:55 AM,31.5,30.6,96,30.10,10.0,SE,4.6,-,N/A,,Clear,140,2013-02-14 09:55:00
4:15 AM,34.9,33.8,96,30.10,10.0,SSE,3.5,-,N/A,,Clear,150,2013-02-14 10:15:00
4:35 AM,34.5,32.4,92,30.11,10.0,SE,4.6,-,N/A,,Clear,140,2013-02-14 10:35:00
4:55 AM,35.1,33.1,92,30.11,10.0,SE,4.6,-,N/A,,Clear,140,2013-02-14 10:55:00
5:15 AM,34.0,32.0,92,30.11,10.0,SE,3.5,-,N/A,,Clear,130,2013-02-14 11:15:00
5:35 AM,32.7,31.8,96,30.12,10.0,Calm,Calm,-,N/A,,Clear,0,2013-02-14 11:35:00
5:55 AM,33.1,32.0,96,30.12,10.0,SE,3.5,-,N/A,,Clear,140,2013-02-14 11:55:00
6:15 AM,34.7,33.3,94,30.12,10.0,SE,3.5,-,N/A,,Clear,140,2013-02-14 12:15:00
6:35 AM,32.2,31.5,97,30.13,10.0,Calm,Calm,-,N/A,,Clear,0,2013-02-14 12:35:00
6:55 AM,33.1,32.0,96,30.14,10.0,SSW,4.6,-,N/A,,Clear,210,2013-02-14 12:55:00
7:15 AM,33.8,32.4,94,30.15,5.0,Calm,Calm,-,N/A,,Clear,0,2013-02-14 13:15:00
7:35 AM,33.1,32.0,96,30.16,3.0,Calm,Calm,-,N/A,,Clear,0,2013-02-14 13:35:00
7:55 AM,33.4,32.5,96,30.16,2.5,Calm,Calm,-,N/A,,Clear,0,2013-02-14 13:55:00
8:15 AM,35.6,34.7,97,30.16,4.0,Calm,Calm,-,N/A,,Clear,0,2013-02-14 14:15:00
8:35 AM,36.5,35.4,96,30.17,7.0,SE,3.5,-,N/A,,Clear,130,2013-02-14 14:35:00
8:55 AM,39.2,37.6,94,30.17,10.0,Calm,Calm,-,N/A,,Clear,0,2013-02-14 14:55:00
9:15 AM,41.9,38.1,86,30.17,10.0,Calm,Calm,-,N/A,,Clear,0,2013-02-14 15:15:00
9:35 AM,44.6,38.5,79,30.17,10.0,South,4.6,-,N/A,,Clear,190,2013-02-14 15:35:00
10:15 AM,48.4,39.2,71,30.17,10.0,South,4.6,-,N/A,,Clear,190,2013-02-14 16:15:00
10:35 AM,50.9,37.8,61,30.17,10.0,SSW,5.8,-,N/A,,Clear,200,2013-02-14 16:35:00
10:55 AM,52.9,35.6,52,30.17,10.0,SW,4.6,-,N/A,,Clear,230,2013-02-14 16:55:00
11:15 AM,54.0,32.7,45,30.16,10.0,SSW,6.9,-,N/A,,Clear,210,2013-02-14 17:15:00
11:35 AM,56.3,33.4,42,30.15,10.0,SW,3.5,-,N/A,,Clear,220,2013-02-14 17:35:00
11:55 AM,58.1,32.5,38,30.15,10.0,SSW,6.9,-,N/A,,Clear,210,2013-02-14 17:55:00
12:15 PM,58.3,34.5,41,30.15,10.0,South,5.8,-,N/A,,Clear,180,2013-02-14 18:15:00
12:35 PM,60.1,35.4,40,30.14,10.0,South,5.8,-,N/A,,Clear,170,2013-02-14 18:35:00
12:55 PM,60.4,35.2,39,30.12,10.0,SW,6.9,-,N/A,,Clear,230,2013-02-14 18:55:00
1:15 PM,61.2,34.5,37,30.11,10.0,SSE,5.8,-,N/A,,Clear,150,2013-02-14 19:15:00
1:35 PM,61.5,34.3,36,30.10,10.0,SSW,3.5,-,N/A,,Clear,210,2013-02-14 19:35:00
1:55 PM,62.2,35.2,37,30.09,10.0,South,8.1,-,N/A,,Clear,190,2013-02-14 19:55:00
2:15 PM,62.8,35.2,36,30.08,10.0,SSW,3.5,-,N/A,,Clear,210,2013-02-14 20:15:00
2:35 PM,63.9,35.4,35,30.07,10.0,SE,4.6,-,N/A,,Clear,140,2013-02-14 20:35:00
2:55 PM,63.9,35.2,35,30.07,10.0,SSW,4.6,-,N/A,,Clear,200,2013-02-14 20:55:00
3:15 PM,63.9,34.5,34,30.07,10.0,WSW,3.5,-,N/A,,Clear,240,2013-02-14 21:15:00
3:35 PM,64.2,34.0,32,30.06,10.0,South,3.5,-,N/A,,Clear,170,2013-02-14 21:35:00
3:55 PM,64.0,34.2,33,30.06,10.0,Calm,Calm,-,N/A,,Clear,0,2013-02-14 21:55:00
4:15 PM,64.8,34.2,32,30.06,10.0,South,5.8,-,N/A,,Clear,170,2013-02-14 22:15:00
4:35 PM,64.6,34.0,32,30.06,10.0,South,4.6,-,N/A,,Clear,170,2013-02-14 22:35:00
4:55 PM,64.4,33.6,32,30.06,10.0,SE,3.5,-,N/A,,Clear,130,2013-02-14 22:55:00
5:15 PM,63.7,33.8,33,30.06,10.0,SSE,5.8,-,N/A,,Clear,150,2013-02-14 23:15:00
5:35 PM,62.8,33.6,34,30.06,10.0,SSE,4.6,-,N/A,,Clear,150,2013-02-14 23:35:00
5:55 PM,61.5,33.6,35,30.06,10.0,SSE,3.5,-,N/A,,Clear,160,2013-02-14 23:55:00
6:15 PM,59.9,34.2,38,30.07,10.0,SE,3.5,-,N/A,,Clear,140,2013-02-15 00:15:00
6:35 PM,58.5,34.5,41,30.07,10.0,Calm,Calm,-,N/A,,Clear,0,2013-02-15 00:35:00
6:55 PM,55.0,38.3,53,30.08,10.0,Calm,Calm,-,N/A,,Clear,0,2013-02-15 00:55:00
7:15 PM,52.3,38.7,60,30.08,10.0,ESE,4.6,-,N/A,,Clear,120,2013-02-15 01:15:00
7:35 PM,51.8,37.9,59,30.08,10.0,ESE,3.5,-,N/A,,Clear,120,2013-02-15 01:35:00
7:55 PM,53.6,35.1,50,30.08,10.0,ESE,3.5,-,N/A,,Clear,120,2013-02-15 01:55:00
8:15 PM,53.1,34.5,49,30.09,10.0,SE,3.5,-,N/A,,Clear,130,2013-02-15 02:15:00
8:35 PM,50.5,37.6,61,30.09,10.0,ESE,3.5,-,N/A,,Clear,110,2013-02-15 02:35:00
8:55 PM,51.1,34.7,54,30.10,10.0,ESE,3.5,-,N/A,,Clear,120,2013-02-15 02:55:00
9:15 PM,48.2,36.0,63,30.09,10.0,ESE,4.6,-,N/A,,Clear,110,2013-02-15 03:15:00
9:35 PM,51.6,32.2,47,30.09,10.0,ESE,4.6,-,N/A,,Clear,110,2013-02-15 03:35:00
10:15 PM,52.2,31.8,46,30.08,10.0,ESE,4.6,-,N/A,,Clear,110,2013-02-15 04:15:00
10:35 PM,51.3,32.2,48,30.08,10.0,ESE,4.6,-,N/A,,Clear,110,2013-02-15 04:35:00
10:55 PM,51.3,32.0,48,30.09,10.0,ESE,4.6,-,N/A,,Clear,120,2013-02-15 04:55:00
11:15 PM,50.9,31.8,48,30.09,10.0,ESE,3.5,-,N/A,,Clear,120,2013-02-15 05:15:00
11:35 PM,50.0,32.0,50,30.10,10.0,SE,3.5,-,N/A,,Clear,130,2013-02-15 05:35:00
11:55 PM,48.7,32.2,53,30.11,10.0,Calm,Calm,-,N/A,,Clear,0,2013-02-15 05:55:00